createdAt,value
2023-02-04T00:00:24.335Z,102317.25
2023-02-04T00:02:53.646Z,102325.41
2023-02-04T00:05:21.889Z,102332.16
2023-02-04T00:07:48.882Z,102331.84
2023-02-04T00:10:16.159Z,102342.19
2023-02-04T00:12:43.025Z,102340.63
2023-02-04T00:15:10.762Z,102345.78
2023-02-04T00:17:40.041Z,102356.38
2023-02-04T00:20:07.403Z,102362.03
2023-02-04T00:22:34.211Z,102370.44
2023-02-04T00:25:03.703Z,102377.66
2023-02-04T00:27:30.631Z,102377.81
2023-02-04T00:30:00.508Z,102379.53
2023-02-04T00:32:27.473Z,102394.06
2023-02-04T00:34:56.595Z,102398.75
2023-02-04T00:37:26.224Z,102396.72
2023-02-04T00:39:55.215Z,102411.47
2023-02-04T00:42:22.294Z,102417.56
2023-02-04T00:44:54.474Z,102427.66
2023-02-04T00:47:21.402Z,102434.78
2023-02-04T00:49:48.268Z,102437.13
2023-02-04T00:52:19.811Z,102433.94
2023-02-04T00:54:46.655Z,102450.50
2023-02-04T00:57:13.628Z,102460.09
2023-02-04T00:59:40.500Z,102466.53
2023-02-04T01:02:07.578Z,102472.53
2023-02-04T01:04:34.419Z,102478.28
2023-02-04T01:07:01.448Z,102477.09
2023-02-04T01:09:34.014Z,102492.47
2023-02-04T01:12:05.882Z,102495.97
2023-02-04T01:14:35.414Z,102510.78
2023-02-04T01:17:02.354Z,102508.00
2023-02-04T01:19:29.276Z,102513.13
2023-02-04T01:21:56.133Z,102518.31
2023-02-04T01:24:25.343Z,102522.75
2023-02-04T01:26:58.447Z,102530.22
2023-02-04T01:29:29.904Z,102532.53
2023-02-04T01:31:59.309Z,102536.47
2023-02-04T01:34:31.493Z,102545.34
2023-02-04T01:36:58.470Z,102544.28
2023-02-04T01:39:25.434Z,102551.00
2023-02-04T01:41:52.434Z,102562.06
2023-02-04T01:44:19.277Z,102565.06
2023-02-04T01:46:48.375Z,102573.53
2023-02-04T01:49:20.300Z,102586.72
2023-02-04T01:51:47.529Z,102587.19
2023-02-04T01:54:18.007Z,102585.16
2023-02-04T01:56:51.539Z,102590.16
2023-02-04T01:59:26.912Z,102600.84
2023-02-04T02:01:56.575Z,102609.69
2023-02-04T02:04:32.901Z,102605.47
2023-02-04T02:07:05.811Z,102605.94
2023-02-04T02:09:37.663Z,102610.84
2023-02-04T02:12:04.954Z,102607.88
2023-02-04T02:14:31.768Z,102619.31
2023-02-04T02:17:01.227Z,102622.59
2023-02-04T02:19:36.509Z,102628.94
2023-02-04T02:22:11.537Z,102632.78
2023-02-04T02:24:38.369Z,102638.00
2023-02-04T02:27:09.553Z,102632.69
2023-02-04T02:29:41.422Z,102632.03
2023-02-04T02:32:11.311Z,102641.25
2023-02-04T02:34:39.504Z,102643.66
2023-02-04T02:37:10.142Z,102656.94
2023-02-04T02:39:47.167Z,102657.44
2023-02-04T02:42:18.016Z,102669.75
2023-02-04T02:44:49.503Z,102669.19
2023-02-04T02:47:21.758Z,102675.50
2023-02-04T02:49:54.666Z,102688.00
2023-02-04T02:52:23.007Z,102700.69
2023-02-04T02:54:53.677Z,102699.34
2023-02-04T02:57:23.221Z,102698.00
2023-02-04T02:59:50.498Z,102711.19
2023-02-04T03:02:23.925Z,102716.25
2023-02-04T03:05:01.565Z,102713.09
2023-02-04T03:07:28.660Z,102729.16
2023-02-04T03:09:58.730Z,102733.69
2023-02-04T03:12:25.800Z,102742.38
2023-02-04T03:14:52.674Z,102745.16
2023-02-04T03:17:19.894Z,102761.47
2023-02-04T03:19:46.832Z,102760.09
2023-02-04T03:22:16.497Z,102759.56
2023-02-04T03:24:43.507Z,102770.00
2023-02-04T03:27:10.417Z,102773.72
2023-02-04T03:29:48.452Z,102776.16
2023-02-04T03:32:15.499Z,102787.44
2023-02-04T03:34:42.437Z,102798.13
2023-02-04T03:37:09.628Z,102801.59
2023-02-04T03:39:41.006Z,102794.81
2023-02-04T03:42:10.437Z,102807.31
2023-02-04T03:44:41.856Z,102814.44
2023-02-04T03:47:08.823Z,102820.97
2023-02-04T03:49:36.188Z,102829.22
2023-02-04T03:52:04.368Z,102834.06
2023-02-04T03:54:34.301Z,102835.63
2023-02-04T03:57:01.179Z,102840.84
2023-02-04T03:59:28.106Z,102847.19
2023-02-04T04:01:55.081Z,102857.16
2023-02-04T04:04:22.111Z,102868.38
2023-02-04T04:06:48.942Z,102875.50
2023-02-04T04:09:18.285Z,102890.53
2023-02-04T04:11:48.231Z,102885.31
2023-02-04T04:14:15.241Z,102887.13
2023-02-04T04:16:44.400Z,102893.47
2023-02-04T04:19:11.397Z,102897.47
2023-02-04T04:21:43.074Z,102909.09
2023-02-04T04:24:12.207Z,102906.06
2023-02-04T04:26:41.454Z,102914.94
2023-02-04T04:29:13.153Z,102909.28
2023-02-04T04:31:41.358Z,102907.19
2023-02-04T04:34:13.319Z,102907.72
2023-02-04T04:36:40.719Z,102920.22
2023-02-04T04:39:07.589Z,102922.84
2023-02-04T04:41:39.137Z,102930.56
2023-02-04T04:44:06.298Z,102930.75
2023-02-04T04:46:35.730Z,102934.66
2023-02-04T04:49:02.762Z,102930.56
2023-02-04T04:51:31.931Z,102943.09
2023-02-04T04:53:59.939Z,102934.84
2023-02-04T04:56:26.973Z,102945.78
2023-02-04T04:58:53.825Z,102946.13
2023-02-04T05:01:22.543Z,102952.28
2023-02-04T05:03:54.353Z,102946.22
2023-02-04T05:06:25.357Z,102944.22
2023-02-04T05:08:55.680Z,102952.03
2023-02-04T05:11:25.659Z,102954.31
2023-02-04T05:13:52.586Z,102951.16
2023-02-04T05:16:24.291Z,102951.34
2023-02-04T05:18:51.392Z,102961.59
2023-02-04T05:21:18.332Z,102961.59
2023-02-04T05:23:47.384Z,102972.88
2023-02-04T05:26:25.145Z,102978.41
2023-02-04T05:28:56.358Z,102986.91
2023-02-04T05:31:24.196Z,102998.19
2023-02-04T05:33:54.609Z,103000.84
2023-02-04T05:36:22.052Z,103006.38
2023-02-04T05:38:49.292Z,103014.81
2023-02-04T05:41:18.636Z,103022.75
2023-02-04T05:43:45.602Z,103019.38
2023-02-04T05:46:12.604Z,103034.94
2023-02-04T05:48:41.762Z,103033.19
2023-02-04T05:51:08.659Z,103044.28
2023-02-04T05:53:37.788Z,103044.50
2023-02-04T05:56:12.809Z,103043.53
2023-02-04T05:58:42.829Z,103042.91
2023-02-04T06:01:12.210Z,103041.66
2023-02-04T06:03:39.301Z,103046.69
2023-02-04T06:06:09.120Z,103046.09
2023-02-04T06:08:38.451Z,103053.59
2023-02-04T06:11:07.878Z,103058.19
2023-02-04T06:13:34.813Z,103060.09
2023-02-04T06:16:04.296Z,103067.13
2023-02-04T06:18:31.297Z,103070.06
2023-02-04T06:20:58.207Z,103076.56
2023-02-04T06:23:25.241Z,103081.16
2023-02-04T06:25:52.366Z,103086.34
2023-02-04T06:28:21.425Z,103082.25
2023-02-04T06:30:49.548Z,103082.19
2023-02-04T06:33:16.772Z,103086.22
2023-02-04T06:35:43.723Z,103105.53
2023-02-04T06:38:10.615Z,103106.63
2023-02-04T06:40:41.997Z,103116.44
2023-02-04T06:43:11.468Z,103119.28
2023-02-04T06:45:43.161Z,103124.59
2023-02-04T06:48:10.189Z,103128.94
2023-02-04T06:50:37.121Z,103140.78
2023-02-04T06:53:06.680Z,103149.66
2023-02-04T06:55:33.622Z,103147.84
2023-02-04T06:58:02.740Z,103148.06
2023-02-04T07:00:32.142Z,103148.94
2023-02-04T07:02:59.759Z,103143.13
2023-02-04T07:05:26.719Z,103147.63
2023-02-04T07:07:56.627Z,103164.63
2023-02-04T07:10:23.730Z,103164.56
2023-02-04T07:12:50.577Z,103169.88
2023-02-04T07:15:17.738Z,103167.81
2023-02-04T07:17:44.825Z,103176.19
2023-02-04T07:20:15.525Z,103169.00
2023-02-04T07:22:42.586Z,103183.81
2023-02-04T07:25:15.038Z,103188.28
2023-02-04T07:27:44.074Z,103193.53
2023-02-04T07:30:13.939Z,103191.31
2023-02-04T07:32:43.327Z,103201.81
2023-02-04T07:35:15.221Z,103201.59
2023-02-04T07:37:44.269Z,103209.66
2023-02-04T07:40:12.823Z,103212.72
2023-02-04T07:42:41.899Z,103213.59
2023-02-04T07:45:11.596Z,103220.78
2023-02-04T07:47:38.720Z,103218.63
2023-02-04T07:50:06.081Z,103227.81
2023-02-04T07:52:33.153Z,103231.41
2023-02-04T07:55:00.094Z,103239.78
2023-02-04T07:57:27.099Z,103242.44
2023-02-04T07:59:54.069Z,103249.38
2023-02-04T08:02:21.484Z,103259.34
2023-02-04T08:04:48.489Z,103264.03
2023-02-04T08:07:17.506Z,103256.22
2023-02-04T08:09:44.507Z,103251.28
2023-02-04T08:12:11.437Z,103247.72
2023-02-04T08:14:40.929Z,103255.91
2023-02-04T08:17:09.863Z,103252.16
2023-02-04T08:19:39.048Z,103249.34
2023-02-04T08:22:08.484Z,103251.75
2023-02-04T08:24:40.653Z,103260.47
2023-02-04T08:27:07.734Z,103265.25
2023-02-04T08:29:34.710Z,103267.16
2023-02-04T08:32:02.296Z,103262.84
2023-02-04T08:34:29.433Z,103265.16
2023-02-04T08:36:56.531Z,103260.34
2023-02-04T08:39:25.990Z,103273.38
2023-02-04T08:41:53.136Z,103271.84
2023-02-04T08:44:22.841Z,103271.88
2023-02-04T08:46:49.791Z,103262.47
2023-02-04T08:49:18.985Z,103272.66
2023-02-04T08:51:46.022Z,103270.56
2023-02-04T08:54:15.997Z,103277.56
2023-02-04T08:56:45.024Z,103284.72
2023-02-04T08:59:12.147Z,103280.44
2023-02-04T09:01:51.066Z,103278.91
2023-02-04T09:04:23.168Z,103282.16
2023-02-04T09:06:53.964Z,103291.81
2023-02-04T09:09:24.868Z,103291.66
2023-02-04T09:11:53.090Z,103288.63
2023-02-04T09:14:23.131Z,103292.88
2023-02-04T09:16:52.325Z,103304.47
2023-02-04T09:19:25.576Z,103309.38
2023-02-04T09:21:54.032Z,103311.50
2023-02-04T09:24:23.901Z,103319.34
2023-02-04T09:26:54.699Z,103327.66
2023-02-04T09:29:21.798Z,103335.56
2023-02-04T09:31:49.120Z,103341.09
2023-02-04T09:34:16.115Z,103342.13
2023-02-04T09:36:43.043Z,103345.22
2023-02-04T09:39:10.252Z,103341.19
2023-02-04T09:41:41.840Z,103338.19
2023-02-04T09:44:22.969Z,103344.34
2023-02-04T09:46:55.996Z,103343.31
2023-02-04T09:49:23.382Z,103340.34
2023-02-04T09:51:53.133Z,103348.66
2023-02-04T09:54:28.131Z,103350.94
2023-02-04T09:56:59.422Z,103348.81
2023-02-04T09:59:29.580Z,103342.09
2023-02-04T10:02:01.920Z,103354.47
2023-02-04T10:04:32.324Z,103357.81
2023-02-04T10:06:59.329Z,103358.19
2023-02-04T10:09:28.789Z,103364.19
2023-02-04T10:11:58.844Z,103360.94
2023-02-04T10:14:25.840Z,103358.88
2023-02-04T10:16:59.786Z,103373.78
2023-02-04T10:19:29.214Z,103365.72
2023-02-04T10:21:56.815Z,103366.94
2023-02-04T10:24:34.531Z,103366.22
2023-02-04T10:27:10.688Z,103367.63
2023-02-04T10:29:38.212Z,103368.66
2023-02-04T10:32:05.280Z,103368.19
2023-02-04T10:34:40.061Z,103372.59
2023-02-04T10:37:23.628Z,103377.22
2023-02-04T10:39:52.833Z,103372.19
2023-02-04T10:42:26.341Z,103369.59
2023-02-04T10:44:54.089Z,103380.34
2023-02-04T10:47:29.010Z,103381.00
2023-02-04T10:50:15.296Z,103373.88
2023-02-04T10:53:15.174Z,103371.34
2023-02-04T10:55:43.546Z,103366.44
2023-02-04T10:58:17.346Z,103378.50
2023-02-04T11:00:44.544Z,103382.47
2023-02-04T11:03:22.874Z,103380.03
2023-02-04T11:05:50.464Z,103393.47
2023-02-04T11:08:32.546Z,103392.19
2023-02-04T11:11:06.249Z,103391.09
2023-02-04T11:13:51.529Z,103399.69
2023-02-04T11:16:18.470Z,103401.63
2023-02-04T11:18:58.248Z,103393.78
2023-02-04T11:21:34.511Z,103386.06
2023-02-04T11:24:16.412Z,103385.78
2023-02-04T11:26:51.610Z,103377.47
2023-02-04T11:29:43.804Z,103383.59
2023-02-04T11:32:37.872Z,103385.66
2023-02-04T11:35:27.625Z,103392.06
2023-02-04T11:37:56.084Z,103392.50
2023-02-04T11:40:25.326Z,103383.91
2023-02-04T11:42:59.846Z,103390.19
2023-02-04T11:45:32.382Z,103393.72
2023-02-04T11:48:04.143Z,103391.28
2023-02-04T11:50:35.278Z,103388.66
2023-02-04T11:53:02.587Z,103390.34
2023-02-04T11:55:39.608Z,103394.03
2023-02-04T11:58:10.087Z,103401.22
2023-02-04T12:00:39.417Z,103402.78
2023-02-04T12:03:26.367Z,103409.09
2023-02-04T12:05:59.642Z,103406.50
2023-02-04T12:08:37.225Z,103411.31
2023-02-04T12:11:15.834Z,103409.53
2023-02-04T12:13:52.487Z,103404.59
2023-02-04T12:16:22.075Z,103408.41
2023-02-04T12:18:49.834Z,103410.00
2023-02-04T12:21:20.280Z,103403.13
2023-02-04T12:23:47.333Z,103414.88
2023-02-04T12:26:14.358Z,103409.66
2023-02-04T12:28:41.271Z,103412.22
2023-02-04T12:31:08.458Z,103413.31
2023-02-04T12:33:37.769Z,103407.00
2023-02-04T12:36:05.305Z,103410.88
2023-02-04T12:38:34.450Z,103417.13
2023-02-04T12:41:01.564Z,103418.19
2023-02-04T12:43:28.561Z,103425.63
2023-02-04T12:45:58.058Z,103424.38
2023-02-04T12:48:26.188Z,103424.34
2023-02-04T12:50:53.426Z,103422.28
2023-02-04T12:53:23.058Z,103423.38
2023-02-04T12:55:50.117Z,103422.78
2023-02-04T12:58:19.622Z,103420.94
2023-02-04T13:00:46.628Z,103425.19
2023-02-04T13:03:16.263Z,103426.72
2023-02-04T13:05:47.925Z,103425.50
2023-02-04T13:08:14.842Z,103424.50
2023-02-04T13:10:43.853Z,103421.63
2023-02-04T13:13:10.840Z,103430.91
2023-02-04T13:15:40.114Z,103440.47
2023-02-04T13:18:08.314Z,103435.53
2023-02-04T13:20:35.892Z,103444.00
2023-02-04T13:23:03.994Z,103449.25
2023-02-04T13:25:31.429Z,103444.97
2023-02-04T13:28:04.475Z,103451.09
2023-02-04T13:30:31.621Z,103442.88
2023-02-04T13:33:01.241Z,103445.81
2023-02-04T13:35:31.116Z,103440.31
2023-02-04T13:38:01.258Z,103437.00
2023-02-04T13:40:30.573Z,103434.81
2023-02-04T13:42:57.706Z,103441.81
2023-02-04T13:45:25.225Z,103441.47
2023-02-04T13:47:55.718Z,103449.94
2023-02-04T13:50:25.650Z,103441.41
2023-02-04T13:52:52.923Z,103445.09
2023-02-04T13:55:20.037Z,103441.81
2023-02-04T13:57:47.169Z,103445.34
2023-02-04T14:00:14.921Z,103450.16
2023-02-04T14:02:44.578Z,103458.59
2023-02-04T14:05:14.064Z,103456.34
2023-02-04T14:07:41.116Z,103458.28
2023-02-04T14:10:11.813Z,103452.88
2023-02-04T14:12:42.396Z,103452.28
2023-02-04T14:15:09.931Z,103455.06
2023-02-04T14:17:43.231Z,103457.47
2023-02-04T14:20:13.158Z,103452.03
2023-02-04T14:22:42.899Z,103467.69
2023-02-04T14:25:10.418Z,103462.47
2023-02-04T14:27:42.521Z,103458.88
2023-02-04T14:30:19.117Z,103466.41
2023-02-04T14:32:47.015Z,103465.28
2023-02-04T14:35:17.045Z,103471.22
2023-02-04T14:37:47.533Z,103462.41
2023-02-04T14:40:25.054Z,103468.56
2023-02-04T14:42:54.541Z,103475.13
2023-02-04T14:45:21.554Z,103475.34
2023-02-04T14:47:48.647Z,103471.81
2023-02-04T14:50:17.304Z,103476.63
2023-02-04T14:52:44.301Z,103476.84
2023-02-04T14:55:14.477Z,103473.03
2023-02-04T14:57:44.083Z,103471.34
2023-02-04T15:00:16.979Z,103472.69
2023-02-04T15:02:46.181Z,103464.91
2023-02-04T15:05:15.242Z,103466.41
2023-02-04T15:07:46.953Z,103463.75
2023-02-04T15:10:16.726Z,103470.19
2023-02-04T15:12:44.069Z,103469.59
2023-02-04T15:15:11.334Z,103470.47
2023-02-04T15:17:40.721Z,103471.53
2023-02-04T15:20:11.366Z,103469.75
2023-02-04T15:22:39.262Z,103464.50
2023-02-04T15:25:07.030Z,103466.25
2023-02-04T15:27:39.163Z,103463.69
2023-02-04T15:30:10.453Z,103467.66
2023-02-04T15:32:37.651Z,103463.75
2023-02-04T15:35:08.534Z,103470.03
2023-02-04T15:37:35.802Z,103468.28
2023-02-04T15:40:02.849Z,103468.47
2023-02-04T15:42:33.360Z,103464.13
2023-02-04T15:45:02.843Z,103463.75
2023-02-04T15:47:32.349Z,103471.94
2023-02-04T15:49:59.255Z,103477.03
2023-02-04T15:52:31.093Z,103469.97
2023-02-04T15:54:58.017Z,103474.97
2023-02-04T15:57:25.076Z,103475.50
2023-02-04T15:59:54.676Z,103470.81
2023-02-04T16:02:21.844Z,103483.91
2023-02-04T16:04:54.527Z,103479.31
2023-02-04T16:07:21.544Z,103491.09
2023-02-04T16:09:48.639Z,103482.59
2023-02-04T16:12:15.733Z,103477.41
2023-02-04T16:14:45.173Z,103490.44
2023-02-04T16:17:14.732Z,103481.09
2023-02-04T16:19:41.704Z,103490.31
2023-02-04T16:22:08.791Z,103491.75
2023-02-04T16:24:35.965Z,103493.72
2023-02-04T16:27:03.109Z,103498.09
2023-02-04T16:29:30.232Z,103498.25
2023-02-04T16:32:00.606Z,103496.22
2023-02-04T16:34:29.238Z,103501.53
2023-02-04T16:36:58.611Z,103503.41
2023-02-04T16:39:25.600Z,103503.88
2023-02-04T16:41:52.776Z,103512.69
2023-02-04T16:44:19.736Z,103497.69
2023-02-04T16:46:49.120Z,103498.88
2023-02-04T16:49:17.201Z,103499.69
2023-02-04T16:51:44.198Z,103510.19
2023-02-04T16:54:14.379Z,103509.63
2023-02-04T16:56:43.535Z,103514.38
2023-02-04T16:59:10.594Z,103503.84
2023-02-04T17:01:37.654Z,103508.31
2023-02-04T17:04:07.933Z,103509.31
2023-02-04T17:06:35.945Z,103509.53
2023-02-04T17:09:02.945Z,103517.69
2023-02-04T17:11:29.961Z,103520.75
2023-02-04T17:14:03.090Z,103514.56
2023-02-04T17:16:30.870Z,103517.84
2023-02-04T17:18:58.142Z,103510.13
2023-02-04T17:21:30.160Z,103515.53
2023-02-04T17:24:04.281Z,103516.41
2023-02-04T17:26:39.554Z,103520.91
2023-02-04T17:29:17.922Z,103522.00
2023-02-04T17:31:45.067Z,103526.88
2023-02-04T17:34:12.378Z,103521.34
2023-02-04T17:36:39.637Z,103524.34
2023-02-04T17:39:07.736Z,103523.75
2023-02-04T17:41:39.717Z,103524.41
2023-02-04T17:44:06.910Z,103527.97
2023-02-04T17:46:38.862Z,103526.44
2023-02-04T17:49:05.857Z,103535.53
2023-02-04T17:51:33.122Z,103529.78
2023-02-04T17:54:02.642Z,103513.94
2023-02-04T17:56:29.666Z,103527.00
2023-02-04T17:58:56.867Z,103527.72
2023-02-04T18:01:26.696Z,103533.41
2023-02-04T18:03:58.258Z,103522.50
2023-02-04T18:06:29.032Z,103522.78
2023-02-04T18:09:05.066Z,103525.66
2023-02-04T18:11:39.490Z,103518.94
2023-02-04T18:14:27.965Z,103518.94
2023-02-04T18:16:58.882Z,103517.47
2023-02-04T18:19:36.926Z,103516.19
2023-02-04T18:22:15.750Z,103523.81
2023-02-04T18:24:46.122Z,103521.72
2023-02-04T18:27:23.929Z,103534.16
2023-02-04T18:29:59.136Z,103536.94
2023-02-04T18:32:42.195Z,103544.84
2023-02-04T18:35:42.290Z,103537.31
2023-02-04T18:38:32.212Z,103542.09
2023-02-04T18:41:21.246Z,103542.22
2023-02-04T18:43:51.121Z,103540.09
2023-02-04T18:46:33.167Z,103543.31
2023-02-04T18:49:17.466Z,103545.00
2023-02-04T18:51:45.669Z,103545.06
2023-02-04T18:54:24.639Z,103538.13
2023-02-04T18:56:53.446Z,103541.22
2023-02-04T18:59:21.416Z,103539.91
2023-02-04T19:01:51.313Z,103528.38
2023-02-04T19:04:26.075Z,103537.50
2023-02-04T19:06:55.046Z,103550.28
2023-02-04T19:09:29.170Z,103546.34
2023-02-04T19:11:58.802Z,103546.09
2023-02-04T19:14:43.897Z,103551.28
2023-02-04T19:17:14.409Z,103550.91
2023-02-04T19:19:46.374Z,103551.78
2023-02-04T19:22:49.708Z,103555.75
2023-02-04T19:25:27.599Z,103555.16
2023-02-04T19:28:00.722Z,103549.47
2023-02-04T19:30:30.772Z,103545.53
2023-02-04T19:33:14.254Z,103554.72
2023-02-04T19:35:46.344Z,103546.66
2023-02-04T19:38:45.307Z,103556.59
2023-02-04T19:41:48.377Z,103543.50
2023-02-04T19:44:20.389Z,103546.66
2023-02-04T19:46:49.754Z,103549.50
2023-02-04T19:49:30.003Z,103552.84
2023-02-04T19:51:59.514Z,103546.91
2023-02-04T19:54:46.965Z,103553.09
2023-02-04T19:57:25.327Z,103560.22
2023-02-04T19:59:59.945Z,103563.47
2023-02-04T20:02:38.344Z,103560.38
2023-02-04T20:05:20.893Z,103563.00
2023-02-04T20:07:50.319Z,103567.16
2023-02-04T20:10:24.618Z,103562.00
2023-02-04T20:13:18.725Z,103558.59
2023-02-04T20:15:48.439Z,103562.13
2023-02-04T20:18:20.522Z,103554.44
2023-02-04T20:20:47.661Z,103556.59
2023-02-04T20:23:29.187Z,103561.66
2023-02-04T20:25:59.568Z,103556.25
2023-02-04T20:28:40.185Z,103551.84
2023-02-04T20:31:38.753Z,103552.31
2023-02-04T20:34:22.653Z,103556.31
2023-02-04T20:36:52.399Z,103541.66
2023-02-04T20:39:34.314Z,103537.00
2023-02-04T20:42:20.824Z,103535.47
2023-02-04T20:44:48.516Z,103535.56
2023-02-04T20:47:25.452Z,103532.75
2023-02-04T20:50:01.253Z,103532.63
2023-02-04T20:52:43.870Z,103521.69
2023-02-04T20:55:22.889Z,103519.81
2023-02-04T20:57:58.979Z,103531.84
2023-02-04T21:00:34.855Z,103530.66
2023-02-04T21:03:15.865Z,103534.81
2023-02-04T21:05:46.909Z,103532.81
2023-02-04T21:08:21.334Z,103531.38
2023-02-04T21:10:48.310Z,103528.06
2023-02-04T21:13:15.587Z,103533.00
2023-02-04T21:15:45.859Z,103531.38
2023-02-04T21:18:16.044Z,103522.09
2023-02-04T21:20:43.229Z,103524.47
2023-02-04T21:23:10.407Z,103525.03
2023-02-04T21:25:37.909Z,103526.16
2023-02-04T21:28:06.406Z,103528.50
2023-02-04T21:30:33.625Z,103534.91
2023-02-04T21:33:02.307Z,103535.84
2023-02-04T21:35:30.136Z,103533.34
2023-02-04T21:38:04.569Z,103542.22
2023-02-04T21:40:37.504Z,103536.75
2023-02-04T21:43:08.584Z,103539.72
2023-02-04T21:45:39.887Z,103537.50
2023-02-04T21:48:10.436Z,103543.97
2023-02-04T21:50:38.654Z,103546.09
2023-02-04T21:53:08.413Z,103549.22
2023-02-04T21:55:39.377Z,103544.72
2023-02-04T21:58:09.087Z,103540.91
2023-02-04T22:00:39.348Z,103533.81
2023-02-04T22:03:10.153Z,103537.66
2023-02-04T22:05:37.851Z,103539.69
2023-02-04T22:08:12.808Z,103531.88
2023-02-04T22:10:39.880Z,103536.75
2023-02-04T22:13:07.121Z,103537.78
2023-02-04T22:15:37.858Z,103536.56
2023-02-04T22:18:09.439Z,103532.28
2023-02-04T22:20:38.612Z,103534.09
2023-02-04T22:23:06.860Z,103541.91
2023-02-04T22:25:35.090Z,103531.66
2023-02-04T22:28:02.225Z,103524.34
2023-02-04T22:30:29.370Z,103536.47
2023-02-04T22:33:00.807Z,103534.41
2023-02-04T22:35:33.677Z,103542.03
2023-02-04T22:38:04.471Z,103534.13
2023-02-04T22:40:31.412Z,103524.13
2023-02-04T22:43:01.163Z,103514.31
2023-02-04T22:45:31.270Z,103521.91
2023-02-04T22:48:01.094Z,103535.78
2023-02-04T22:50:28.026Z,103535.00
2023-02-04T22:52:55.392Z,103538.59
2023-02-04T22:55:25.678Z,103541.19
2023-02-04T22:57:52.880Z,103542.94
2023-02-04T23:00:22.554Z,103530.13
2023-02-04T23:02:49.736Z,103528.31
2023-02-04T23:05:19.092Z,103524.81
2023-02-04T23:07:46.564Z,103518.38
2023-02-04T23:10:14.503Z,103521.97
2023-02-04T23:12:44.215Z,103521.06
2023-02-04T23:15:15.568Z,103522.22
2023-02-04T23:17:42.505Z,103527.66
2023-02-04T23:20:10.245Z,103543.81
2023-02-04T23:22:37.605Z,103552.13
2023-02-04T23:25:06.505Z,103542.13
2023-02-04T23:27:34.089Z,103542.06
2023-02-04T23:30:01.027Z,103542.56
2023-02-04T23:32:30.963Z,103533.06
2023-02-04T23:35:00.650Z,103536.78
2023-02-04T23:37:28.320Z,103534.13
2023-02-04T23:39:58.086Z,103530.66
2023-02-04T23:42:31.201Z,103533.06
2023-02-04T23:45:00.337Z,103531.19
2023-02-04T23:47:27.402Z,103524.31
2023-02-04T23:49:54.369Z,103525.84
2023-02-04T23:52:23.663Z,103525.91
2023-02-04T23:54:55.381Z,103529.28
2023-02-04T23:57:24.785Z,103536.84
2023-02-04T23:59:54.731Z,103534.47
